Terminal Aerodrome Forecast
Issued by NWS

Home | Current Version | Previous Version | Text Only | Print | Product List | Glossary Off
Versions: 1 2 3 4 5 6 7 8 9 10 11 12 13 14 15 16

000
FTUS43 KMPX 231700
TAFAXN
TAF
KAXN 231730Z 2318/2418 13020G27KT P6SM -SHRA SCT030 OVC050
      TEMPO 2318/2319 4SM -RA BKN030
     FM240000 13015G22KT 6SM -RA BR SCT012 OVC020
     FM240700 12010KT 3SM -RA BR BKN007 OVC015=

USA.gov is the U.S. government's official web portal to all federal, state and local government web resources and services.